sensor_id;sensor_type;location;lat;lon;timestamp;pressure;altitude;pressure_sealevel;temperature;humidity
43217;BME280;60511;42.686;23.300;2022-08-03T00:00:21;94776.81;;;27.36;32.45
43217;BME280;60511;42.686;23.300;2022-08-03T00:02:23;94778.06;;;26.71;33.48
43217;BME280;60511;42.686;23.300;2022-08-03T00:04:23;94779.28;;;27.15;32.73
43217;BME280;60511;42.686;23.300;2022-08-03T00:06:24;94773.75;;;27.41;32.15
43217;BME280;60511;42.686;23.300;2022-08-03T00:08:24;94776.94;;;27.51;32.45
43217;BME280;60511;42.686;23.300;2022-08-03T00:10:25;94769.59;;;27.55;32.01
43217;BME280;60511;42.686;23.300;2022-08-03T00:12:26;94769.56;;;27.51;32.31
43217;BME280;60511;42.686;23.300;2022-08-03T00:14:26;94772.88;;;27.30;32.85
43217;BME280;60511;42.686;23.300;2022-08-03T00:16:26;94768.94;;;27.28;33.00
43217;BME280;60511;42.686;23.300;2022-08-03T00:18:27;94766.81;;;27.48;32.38
43217;BME280;60511;42.686;23.300;2022-08-03T00:20:27;94763.75;;;27.56;32.75
43217;BME280;60511;42.686;23.300;2022-08-03T00:22:27;94766.84;;;27.10;33.54
43217;BME280;60511;42.686;23.300;2022-08-03T00:24:27;94771.97;;;26.81;34.16
43217;BME280;60511;42.686;23.300;2022-08-03T00:26:30;94770.69;;;27.05;33.62
43217;BME280;60511;42.686;23.300;2022-08-03T00:28:31;94773.38;;;26.41;35.07
43217;BME280;60511;42.686;23.300;2022-08-03T00:30:31;94769.91;;;26.71;34.41
43217;BME280;60511;42.686;23.300;2022-08-03T00:32:32;94773.25;;;26.95;33.74
43217;BME280;60511;42.686;23.300;2022-08-03T00:34:32;94768.25;;;26.63;34.60
43217;BME280;60511;42.686;23.300;2022-08-03T00:36:32;94776.03;;;26.64;34.34
43217;BME280;60511;42.686;23.300;2022-08-03T00:38:33;94771.00;;;27.00;33.45
43217;BME280;60511;42.686;23.300;2022-08-03T00:40:33;94765.09;;;26.91;33.94
43217;BME280;60511;42.686;23.300;2022-08-03T00:42:33;94761.81;;;26.75;34.46
43217;BME280;60511;42.686;23.300;2022-08-03T00:44:40;94770.69;;;27.05;33.64
43217;BME280;60511;42.686;23.300;2022-08-03T00:46:41;94771.78;;;27.01;33.97
43217;BME280;60511;42.686;23.300;2022-08-03T00:48:41;94765.84;;;27.25;33.30
43217;BME280;60511;42.686;23.300;2022-08-03T00:50:41;94764.97;;;27.21;33.42
43217;BME280;60511;42.686;23.300;2022-08-03T00:52:42;94766.53;;;26.51;34.72
43217;BME280;60511;42.686;23.300;2022-08-03T00:54:42;94769.44;;;26.35;35.02
43217;BME280;60511;42.686;23.300;2022-08-03T00:56:43;94774.06;;;26.61;34.51
43217;BME280;60511;42.686;23.300;2022-08-03T00:58:44;94764.13;;;27.10;33.36
43217;BME280;60511;42.686;23.300;2022-08-03T01:00:45;94769.19;;;27.15;33.59
43217;BME280;60511;42.686;23.300;2022-08-03T01:02:45;94763.81;;;27.19;33.44
43217;BME280;60511;42.686;23.300;2022-08-03T01:04:45;94757.56;;;26.77;33.94
43217;BME280;60511;42.686;23.300;2022-08-03T01:06:49;94761.66;;;26.03;34.59
43217;BME280;60511;42.686;23.300;2022-08-03T01:13:02;94761.81;;;25.18;36.62
43217;BME280;60511;42.686;23.300;2022-08-03T01:17:07;94765.91;;;24.31;38.40
43217;BME280;60511;42.686;23.300;2022-08-03T01:21:23;94763.25;;;23.63;39.91
43217;BME280;60511;42.686;23.300;2022-08-03T01:23:34;94761.16;;;23.89;40.06
43217;BME280;60511;42.686;23.300;2022-08-03T01:25:51;94760.88;;;23.62;40.51
43217;BME280;60511;42.686;23.300;2022-08-03T01:28:02;94757.81;;;24.31;39.47
43217;BME280;60511;42.686;23.300;2022-08-03T01:30:09;94757.66;;;23.88;40.29
43217;BME280;60511;42.686;23.300;2022-08-03T01:32:12;94764.75;;;23.45;41.72
43217;BME280;60511;42.686;23.300;2022-08-03T01:34:14;94763.69;;;23.50;41.88
43217;BME280;60511;42.686;23.300;2022-08-03T01:36:17;94763.88;;;23.41;41.85
43217;BME280;60511;42.686;23.300;2022-08-03T01:38:21;94764.06;;;23.32;42.28
43217;BME280;60511;42.686;23.300;2022-08-03T01:40:24;94760.72;;;23.55;42.11
43217;BME280;60511;42.686;23.300;2022-08-03T01:42:25;94766.81;;;23.67;41.53
43217;BME280;60511;42.686;23.300;2022-08-03T01:44:28;94766.91;;;23.39;42.21
43217;BME280;60511;42.686;23.300;2022-08-03T01:46:29;94770.16;;;23.45;41.88
43217;BME280;60511;42.686;23.300;2022-08-03T01:48:30;94762.75;;;23.26;42.65
43217;BME280;60511;42.686;23.300;2022-08-03T01:50:31;94767.28;;;23.38;42.05
43217;BME280;60511;42.686;23.300;2022-08-03T01:52:33;94765.91;;;24.31;40.61
43217;BME280;60511;42.686;23.300;2022-08-03T01:54:35;94767.66;;;24.03;40.48
43217;BME280;60511;42.686;23.300;2022-08-03T01:56:36;94762.47;;;23.47;41.57
43217;BME280;60511;42.686;23.300;2022-08-03T01:58:37;94767.59;;;23.04;42.36
43217;BME280;60511;42.686;23.300;2022-08-03T02:00:38;94767.63;;;22.92;42.84
43217;BME280;60511;42.686;23.300;2022-08-03T02:02:39;94774.72;;;22.69;43.11
43217;BME280;60511;42.686;23.300;2022-08-03T02:04:41;94772.06;;;22.84;43.26
43217;BME280;60511;42.686;23.300;2022-08-03T02:06:42;94768.06;;;23.70;41.22
43217;BME280;60511;42.686;23.300;2022-08-03T02:08:44;94769.59;;;24.22;40.11
43217;BME280;60511;42.686;23.300;2022-08-03T02:10:46;94770.00;;;24.60;39.22
43217;BME280;60511;42.686;23.300;2022-08-03T02:12:48;94770.47;;;25.24;37.68
43217;BME280;60511;42.686;23.300;2022-08-03T02:14:49;94771.38;;;25.32;37.65
43217;BME280;60511;42.686;23.300;2022-08-03T02:16:50;94762.94;;;24.94;38.10
43217;BME280;60511;42.686;23.300;2022-08-03T02:18:51;94766.78;;;24.35;39.69
43217;BME280;60511;42.686;23.300;2022-08-03T02:20:53;94772.34;;;24.42;39.46
43217;BME280;60511;42.686;23.300;2022-08-03T02:22:53;94766.56;;;24.43;39.24
43217;BME280;60511;42.686;23.300;2022-08-03T02:24:54;94763.72;;;24.36;39.33
43217;BME280;60511;42.686;23.300;2022-08-03T02:26:55;94767.63;;;24.39;39.45
43217;BME280;60511;42.686;23.300;2022-08-03T02:28:56;94766.91;;;25.00;38.28
43217;BME280;60511;42.686;23.300;2022-08-03T02:30:58;94760.66;;;24.38;39.27
43217;BME280;60511;42.686;23.300;2022-08-03T02:33:01;94766.66;;;23.76;40.27
43217;BME280;60511;42.686;23.300;2022-08-03T02:35:03;94759.69;;;23.43;40.59
43217;BME280;60511;42.686;23.300;2022-08-03T02:37:04;94759.81;;;22.59;42.58
43217;BME280;60511;42.686;23.300;2022-08-03T02:39:06;94764.03;;;22.44;43.05
43217;BME280;60511;42.686;23.300;2022-08-03T02:41:14;94756.22;;;22.14;43.48
43217;BME280;60511;42.686;23.300;2022-08-03T02:43:16;94758.72;;;22.76;42.53
43217;BME280;60511;42.686;23.300;2022-08-03T02:45:17;94759.25;;;24.09;39.81
43217;BME280;60511;42.686;23.300;2022-08-03T02:47:19;94758.56;;;24.12;39.55
43217;BME280;60511;42.686;23.300;2022-08-03T02:49:20;94761.16;;;23.41;40.87
43217;BME280;60511;42.686;23.300;2022-08-03T02:51:21;94758.22;;;23.30;41.20
43217;BME280;60511;42.686;23.300;2022-08-03T02:53:22;94748.88;;;23.12;42.14
43217;BME280;60511;42.686;23.300;2022-08-03T02:55:23;94753.69;;;23.66;41.12
43217;BME280;60511;42.686;23.300;2022-08-03T02:57:28;94758.69;;;23.99;40.11
43217;BME280;60511;42.686;23.300;2022-08-03T02:59:30;94760.72;;;23.39;41.29
43217;BME280;60511;42.686;23.300;2022-08-03T03:01:31;94755.25;;;23.35;41.57
43217;BME280;60511;42.686;23.300;2022-08-03T03:03:32;94768.75;;;23.19;41.79
43217;BME280;60511;42.686;23.300;2022-08-03T03:05:34;94768.75;;;23.67;41.00
43217;BME280;60511;42.686;23.300;2022-08-03T03:07:35;94765.63;;;23.81;40.69
43217;BME280;60511;42.686;23.300;2022-08-03T03:09:36;94764.09;;;23.99;40.31
43217;BME280;60511;42.686;23.300;2022-08-03T03:11:37;94771.88;;;23.85;40.42
43217;BME280;60511;42.686;23.300;2022-08-03T03:13:37;94774.31;;;23.26;41.80
43217;BME280;60511;42.686;23.300;2022-08-03T03:15:38;94775.97;;;23.15;41.84
43217;BME280;60511;42.686;23.300;2022-08-03T03:17:40;94781.53;;;23.06;42.40
43217;BME280;60511;42.686;23.300;2022-08-03T03:19:42;94788.00;;;22.90;42.63
43217;BME280;60511;42.686;23.300;2022-08-03T03:21:44;94787.56;;;22.59;43.26
43217;BME280;60511;42.686;23.300;2022-08-03T03:23:45;94793.75;;;22.60;43.24
43217;BME280;60511;42.686;23.300;2022-08-03T03:25:45;94788.16;;;22.53;43.14
43217;BME280;60511;42.686;23.300;2022-08-03T03:27:46;94786.34;;;22.57;43.19
43217;BME280;60511;42.686;23.300;2022-08-03T03:29:47;94798.63;;;22.98;42.81
43217;BME280;60511;42.686;23.300;2022-08-03T03:31:48;94800.63;;;23.45;41.78
43217;BME280;60511;42.686;23.300;2022-08-03T03:33:48;94791.41;;;23.62;41.27
43217;BME280;60511;42.686;23.300;2022-08-03T03:35:49;94791.13;;;23.67;41.04
43217;BME280;60511;42.686;23.300;2022-08-03T03:37:50;94793.50;;;23.69;41.01
43217;BME280;60511;42.686;23.300;2022-08-03T03:39:52;94789.47;;;24.30;39.71
43217;BME280;60511;42.686;23.300;2022-08-03T03:41:52;94798.53;;;24.38;39.57
43217;BME280;60511;42.686;23.300;2022-08-03T03:43:53;94798.66;;;24.25;39.81
43217;BME280;60511;42.686;23.300;2022-08-03T03:45:53;94800.03;;;24.00;40.29
43217;BME280;60511;42.686;23.300;2022-08-03T03:47:53;94803.59;;;23.88;40.45
43217;BME280;60511;42.686;23.300;2022-08-03T03:49:55;94797.53;;;24.11;40.30
43217;BME280;60511;42.686;23.300;2022-08-03T03:51:56;94801.09;;;23.95;40.46
43217;BME280;60511;42.686;23.300;2022-08-03T03:53:57;94813.03;;;23.94;40.35
43217;BME280;60511;42.686;23.300;2022-08-03T03:55:58;94811.47;;;23.93;40.81
43217;BME280;60511;42.686;23.300;2022-08-03T03:57:58;94806.38;;;24.08;40.72
43217;BME280;60511;42.686;23.300;2022-08-03T03:59:58;94808.66;;;23.90;40.64
43217;BME280;60511;42.686;23.300;2022-08-03T04:01:59;94806.91;;;23.50;41.84
43217;BME280;60511;42.686;23.300;2022-08-03T04:03:59;94801.50;;;23.50;41.76
43217;BME280;60511;42.686;23.300;2022-08-03T04:06:19;94801.88;;;23.48;41.63
43217;BME280;60511;42.686;23.300;2022-08-03T04:08:39;94804.22;;;23.50;41.56
43217;BME280;60511;42.686;23.300;2022-08-03T04:12:58;94799.34;;;23.55;41.46
43217;BME280;60511;42.686;23.300;2022-08-03T04:14:59;94797.94;;;23.45;41.84
43217;BME280;60511;42.686;23.300;2022-08-03T04:17:01;94802.31;;;23.50;41.74
43217;BME280;60511;42.686;23.300;2022-08-03T04:19:03;94802.38;;;23.70;41.64
43217;BME280;60511;42.686;23.300;2022-08-03T04:21:06;94799.16;;;23.32;42.44
43217;BME280;60511;42.686;23.300;2022-08-03T04:23:07;94807.66;;;23.02;43.18
43217;BME280;60511;42.686;23.300;2022-08-03T04:25:09;94799.56;;;23.18;42.82
43217;BME280;60511;42.686;23.300;2022-08-03T04:27:10;94811.31;;;23.10;42.67
43217;BME280;60511;42.686;23.300;2022-08-03T04:29:11;94800.00;;;22.76;43.44
43217;BME280;60511;42.686;23.300;2022-08-03T04:31:13;94802.53;;;22.57;43.89
43217;BME280;60511;42.686;23.300;2022-08-03T04:33:17;94806.28;;;22.96;43.12
43217;BME280;60511;42.686;23.300;2022-08-03T04:35:18;94809.66;;;22.77;43.90
43217;BME280;60511;42.686;23.300;2022-08-03T04:37:37;94806.41;;;22.72;43.79
43217;BME280;60511;42.686;23.300;2022-08-03T04:39:38;94815.69;;;22.86;43.39
43217;BME280;60511;42.686;23.300;2022-08-03T04:41:41;94810.25;;;22.99;43.37
43217;BME280;60511;42.686;23.300;2022-08-03T04:43:42;94817.69;;;22.61;44.15
43217;BME280;60511;42.686;23.300;2022-08-03T04:45:44;94823.91;;;22.50;44.38
43217;BME280;60511;42.686;23.300;2022-08-03T04:47:45;94823.03;;;22.74;44.09
43217;BME280;60511;42.686;23.300;2022-08-03T04:49:46;94827.09;;;22.96;43.63
43217;BME280;60511;42.686;23.300;2022-08-03T04:51:47;94819.66;;;22.77;44.08
43217;BME280;60511;42.686;23.300;2022-08-03T04:53:47;94822.34;;;22.77;43.95
43217;BME280;60511;42.686;23.300;2022-08-03T04:55:48;94820.47;;;23.05;43.72
43217;BME280;60511;42.686;23.300;2022-08-03T04:57:48;94816.16;;;23.96;41.61
43217;BME280;60511;42.686;23.300;2022-08-03T04:59:52;94829.84;;;24.55;40.28
43217;BME280;60511;42.686;23.300;2022-08-03T05:01:55;94831.22;;;23.65;42.01
43217;BME280;60511;42.686;23.300;2022-08-03T05:03:55;94833.34;;;23.12;43.46
43217;BME280;60511;42.686;23.300;2022-08-03T05:05:56;94833.34;;;22.84;43.86
43217;BME280;60511;42.686;23.300;2022-08-03T05:07:56;94835.22;;;22.55;44.70
43217;BME280;60511;42.686;23.300;2022-08-03T05:09:56;94837.91;;;22.67;44.69
43217;BME280;60511;42.686;23.300;2022-08-03T05:11:57;94835.34;;;22.59;44.91
43217;BME280;60511;42.686;23.300;2022-08-03T05:13:57;94837.47;;;22.53;45.03
43217;BME280;60511;42.686;23.300;2022-08-03T05:15:57;94841.53;;;22.47;45.10
43217;BME280;60511;42.686;23.300;2022-08-03T05:17:57;94837.66;;;23.13;43.70
43217;BME280;60511;42.686;23.300;2022-08-03T05:19:58;94842.41;;;24.12;41.77
43217;BME280;60511;42.686;23.300;2022-08-03T05:21:59;94846.03;;;23.24;43.78
43217;BME280;60511;42.686;23.300;2022-08-03T05:23:59;94849.91;;;23.11;43.70
43217;BME280;60511;42.686;23.300;2022-08-03T05:25:59;94855.75;;;23.00;43.88
43217;BME280;60511;42.686;23.300;2022-08-03T05:27:59;94860.72;;;22.70;44.54
43217;BME280;60511;42.686;23.300;2022-08-03T05:30:00;94850.28;;;22.69;44.73
43217;BME280;60511;42.686;23.300;2022-08-03T05:32:00;94856.19;;;22.86;44.48
43217;BME280;60511;42.686;23.300;2022-08-03T05:34:01;94851.97;;;22.61;44.75
43217;BME280;60511;42.686;23.300;2022-08-03T05:36:01;94858.19;;;22.49;45.16
43217;BME280;60511;42.686;23.300;2022-08-03T05:38:02;94860.09;;;22.89;44.60
43217;BME280;60511;42.686;23.300;2022-08-03T05:40:03;94861.13;;;23.41;43.00
43217;BME280;60511;42.686;23.300;2022-08-03T05:42:03;94858.03;;;23.26;43.35
43217;BME280;60511;42.686;23.300;2022-08-03T05:44:03;94865.53;;;23.17;43.66
43217;BME280;60511;42.686;23.300;2022-08-03T05:46:04;94864.16;;;23.39;43.24
43217;BME280;60511;42.686;23.300;2022-08-03T05:48:04;94864.75;;;23.33;43.14
43217;BME280;60511;42.686;23.300;2022-08-03T05:50:05;94862.31;;;24.39;40.96
43217;BME280;60511;42.686;23.300;2022-08-03T05:52:05;94856.03;;;24.35;41.27
43217;BME280;60511;42.686;23.300;2022-08-03T05:54:05;94859.75;;;24.11;41.56
43217;BME280;60511;42.686;23.300;2022-08-03T05:56:06;94864.88;;;23.52;42.77
43217;BME280;60511;42.686;23.300;2022-08-03T05:58:06;94867.28;;;23.25;43.34
43217;BME280;60511;42.686;23.300;2022-08-03T06:00:07;94857.47;;;23.49;42.90
43217;BME280;60511;42.686;23.300;2022-08-03T06:02:08;94859.13;;;24.69;39.62
43217;BME280;60511;42.686;23.300;2022-08-03T06:04:08;94853.28;;;25.25;38.31
43217;BME280;60511;42.686;23.300;2022-08-03T06:06:08;94861.50;;;25.09;39.24
43217;BME280;60511;42.686;23.300;2022-08-03T06:08:10;94864.81;;;24.47;40.60
43217;BME280;60511;42.686;23.300;2022-08-03T06:10:10;94869.53;;;23.83;41.76
43217;BME280;60511;42.686;23.300;2022-08-03T06:12:11;94869.88;;;23.66;42.40
43217;BME280;60511;42.686;23.300;2022-08-03T06:14:11;94866.31;;;23.94;41.86
43217;BME280;60511;42.686;23.300;2022-08-03T06:16:11;94864.59;;;24.72;40.10
43217;BME280;60511;42.686;23.300;2022-08-03T06:18:11;94866.84;;;23.99;41.81
43217;BME280;60511;42.686;23.300;2022-08-03T06:20:12;94870.41;;;24.03;41.64
43217;BME280;60511;42.686;23.300;2022-08-03T06:22:12;94869.09;;;24.13;41.37
43217;BME280;60511;42.686;23.300;2022-08-03T06:24:12;94865.34;;;24.18;41.12
43217;BME280;60511;42.686;23.300;2022-08-03T06:26:13;94866.44;;;24.17;41.38
43217;BME280;60511;42.686;23.300;2022-08-03T06:28:13;94869.09;;;23.81;41.69
43217;BME280;60511;42.686;23.300;2022-08-03T06:30:14;94871.00;;;23.65;42.29
43217;BME280;60511;42.686;23.300;2022-08-03T06:32:16;94874.13;;;23.67;42.21
43217;BME280;60511;42.686;23.300;2022-08-03T06:34:16;94867.94;;;23.66;42.28
43217;BME280;60511;42.686;23.300;2022-08-03T06:36:16;94874.41;;;23.78;41.87
43217;BME280;60511;42.686;23.300;2022-08-03T06:38:16;94871.47;;;23.83;41.60
43217;BME280;60511;42.686;23.300;2022-08-03T06:40:18;94865.97;;;23.95;41.70
43217;BME280;60511;42.686;23.300;2022-08-03T06:42:18;94870.94;;;23.93;41.57
43217;BME280;60511;42.686;23.300;2022-08-03T06:44:19;94875.28;;;23.82;41.40
43217;BME280;60511;42.686;23.300;2022-08-03T06:46:19;94867.78;;;23.75;41.95
43217;BME280;60511;42.686;23.300;2022-08-03T06:48:20;94869.56;;;23.55;41.72
43217;BME280;60511;42.686;23.300;2022-08-03T06:50:20;94865.59;;;23.65;41.01
43217;BME280;60511;42.686;23.300;2022-08-03T06:52:20;94855.16;;;23.95;40.57
43217;BME280;60511;42.686;23.300;2022-08-03T06:54:21;94858.88;;;24.06;40.48
43217;BME280;60511;42.686;23.300;2022-08-03T06:56:23;94855.91;;;24.12;40.87
43217;BME280;60511;42.686;23.300;2022-08-03T06:58:23;94860.03;;;24.05;41.23
43217;BME280;60511;42.686;23.300;2022-08-03T07:00:23;94865.09;;;24.07;41.17
43217;BME280;60511;42.686;23.300;2022-08-03T07:02:24;94858.66;;;24.31;40.40
43217;BME280;60511;42.686;23.300;2022-08-03T07:04:24;94866.47;;;24.88;39.21
43217;BME280;60511;42.686;23.300;2022-08-03T07:06:24;94860.41;;;25.33;38.34
43217;BME280;60511;42.686;23.300;2022-08-03T07:08:25;94860.63;;;24.85;38.48
43217;BME280;60511;42.686;23.300;2022-08-03T07:10:25;94860.81;;;24.41;39.35
43217;BME280;60511;42.686;23.300;2022-08-03T07:12:26;94865.88;;;24.78;38.77
43217;BME280;60511;42.686;23.300;2022-08-03T07:14:27;94860.59;;;24.66;39.05
43217;BME280;60511;42.686;23.300;2022-08-03T07:16:27;94861.03;;;24.17;40.97
43217;BME280;60511;42.686;23.300;2022-08-03T07:18:28;94857.25;;;24.37;40.56
43217;BME280;60511;42.686;23.300;2022-08-03T07:20:28;94869.03;;;24.29;40.76
43217;BME280;60511;42.686;23.300;2022-08-03T07:22:28;94868.44;;;24.36;40.57
43217;BME280;60511;42.686;23.300;2022-08-03T07:24:29;94867.25;;;24.88;39.25
43217;BME280;60511;42.686;23.300;2022-08-03T07:26:29;94864.34;;;24.97;39.18
43217;BME280;60511;42.686;23.300;2022-08-03T07:28:29;94864.69;;;24.24;40.84
43217;BME280;60511;42.686;23.300;2022-08-03T07:30:30;94867.50;;;24.63;40.28
43217;BME280;60511;42.686;23.300;2022-08-03T07:32:32;94868.53;;;24.75;39.75
43217;BME280;60511;42.686;23.300;2022-08-03T07:34:36;94868.47;;;25.30;38.66
43217;BME280;60511;42.686;23.300;2022-08-03T07:36:36;94870.09;;;25.15;38.63
43217;BME280;60511;42.686;23.300;2022-08-03T07:38:36;94864.75;;;24.44;40.21
43217;BME280;60511;42.686;23.300;2022-08-03T07:40:37;94871.09;;;24.87;39.36
43217;BME280;60511;42.686;23.300;2022-08-03T07:42:38;94864.88;;;25.68;37.63
43217;BME280;60511;42.686;23.300;2022-08-03T07:44:38;94873.16;;;25.13;38.48
43217;BME280;60511;42.686;23.300;2022-08-03T07:46:39;94870.72;;;25.08;38.63
43217;BME280;60511;42.686;23.300;2022-08-03T07:48:39;94864.38;;;25.39;37.98
43217;BME280;60511;42.686;23.300;2022-08-03T07:50:40;94868.44;;;25.49;37.63
43217;BME280;60511;42.686;23.300;2022-08-03T07:52:40;94865.72;;;25.72;37.18
43217;BME280;60511;42.686;23.300;2022-08-03T07:54:51;94867.31;;;25.50;37.43
43217;BME280;60511;42.686;23.300;2022-08-03T07:56:52;94866.88;;;25.48;37.36
43217;BME280;60511;42.686;23.300;2022-08-03T07:58:52;94862.94;;;25.45;37.44
43217;BME280;60511;42.686;23.300;2022-08-03T08:00:53;94872.22;;;25.67;36.74
43217;BME280;60511;42.686;23.300;2022-08-03T08:02:53;94875.03;;;25.52;36.87
43217;BME280;60511;42.686;23.300;2022-08-03T08:04:53;94869.28;;;25.53;36.66
43217;BME280;60511;42.686;23.300;2022-08-03T08:06:54;94870.34;;;25.49;36.63
43217;BME280;60511;42.686;23.300;2022-08-03T08:08:54;94875.25;;;25.85;36.15
43217;BME280;60511;42.686;23.300;2022-08-03T08:10:58;94872.09;;;26.30;35.45
43217;BME280;60511;42.686;23.300;2022-08-03T08:12:58;94867.97;;;26.66;34.75
43217;BME280;60511;42.686;23.300;2022-08-03T08:14:59;94877.00;;;26.74;34.67
43217;BME280;60511;42.686;23.300;2022-08-03T08:16:59;94867.31;;;26.76;34.38
43217;BME280;60511;42.686;23.300;2022-08-03T08:19:01;94871.63;;;26.77;34.72
43217;BME280;60511;42.686;23.300;2022-08-03T08:21:01;94868.97;;;26.28;34.67
43217;BME280;60511;42.686;23.300;2022-08-03T08:23:03;94879.06;;;25.81;35.81
43217;BME280;60511;42.686;23.300;2022-08-03T08:25:03;94872.13;;;25.83;35.48
43217;BME280;60511;42.686;23.300;2022-08-03T08:27:04;94876.03;;;25.86;35.12
43217;BME280;60511;42.686;23.300;2022-08-03T08:29:04;94878.84;;;25.70;35.65
43217;BME280;60511;42.686;23.300;2022-08-03T08:31:05;94872.53;;;25.85;35.64
43217;BME280;60511;42.686;23.300;2022-08-03T08:33:05;94875.94;;;25.79;35.43
43217;BME280;60511;42.686;23.300;2022-08-03T08:35:06;94866.34;;;26.08;35.03
43217;BME280;60511;42.686;23.300;2022-08-03T08:37:07;94865.03;;;26.52;34.25
43217;BME280;60511;42.686;23.300;2022-08-03T08:39:07;94858.69;;;26.67;34.04
43217;BME280;60511;42.686;23.300;2022-08-03T08:41:08;94866.06;;;26.67;33.84
43217;BME280;60511;42.686;23.300;2022-08-03T08:43:09;94866.19;;;26.51;34.11
43217;BME280;60511;42.686;23.300;2022-08-03T08:45:09;94871.31;;;26.29;34.26
43217;BME280;60511;42.686;23.300;2022-08-03T08:47:11;94861.13;;;26.49;34.07
43217;BME280;60511;42.686;23.300;2022-08-03T08:49:11;94864.88;;;26.68;33.46
43217;BME280;60511;42.686;23.300;2022-08-03T08:51:16;94857.22;;;26.73;33.28
43217;BME280;60511;42.686;23.300;2022-08-03T08:53:18;94859.97;;;26.77;33.49
43217;BME280;60511;42.686;23.300;2022-08-03T08:55:20;94857.34;;;26.84;32.91
43217;BME280;60511;42.686;23.300;2022-08-03T08:57:21;94851.69;;;26.66;32.78
43217;BME280;60511;42.686;23.300;2022-08-03T08:59:24;94855.34;;;26.51;33.14
43217;BME280;60511;42.686;23.300;2022-08-03T09:01:25;94846.44;;;26.80;32.75
43217;BME280;60511;42.686;23.300;2022-08-03T09:03:26;94854.97;;;26.79;32.07
43217;BME280;60511;42.686;23.300;2022-08-03T09:05:26;94845.69;;;26.83;32.29
43217;BME280;60511;42.686;23.300;2022-08-03T09:07:27;94843.41;;;26.85;31.83
43217;BME280;60511;42.686;23.300;2022-08-03T09:09:29;94848.63;;;27.01;31.91
43217;BME280;60511;42.686;23.300;2022-08-03T09:11:29;94851.91;;;27.18;31.48
43217;BME280;60511;42.686;23.300;2022-08-03T09:13:30;94844.59;;;27.22;31.44
43217;BME280;60511;42.686;23.300;2022-08-03T09:15:32;94844.91;;;27.17;31.36
43217;BME280;60511;42.686;23.300;2022-08-03T09:17:41;94850.22;;;27.06;31.19
43217;BME280;60511;42.686;23.300;2022-08-03T09:19:41;94842.31;;;27.28;31.43
43217;BME280;60511;42.686;23.300;2022-08-03T09:21:42;94841.28;;;27.39;30.90
43217;BME280;60511;42.686;23.300;2022-08-03T09:23:42;94850.31;;;27.47;30.91
43217;BME280;60511;42.686;23.300;2022-08-03T09:25:43;94844.16;;;27.54;30.88
43217;BME280;60511;42.686;23.300;2022-08-03T09:27:45;94843.06;;;27.62;30.86
43217;BME280;60511;42.686;23.300;2022-08-03T09:29:52;94843.94;;;27.73;30.61
43217;BME280;60511;42.686;23.300;2022-08-03T09:31:58;94842.50;;;27.45;30.44
43217;BME280;60511;42.686;23.300;2022-08-03T09:34:00;94837.91;;;27.50;30.64
43217;BME280;60511;42.686;23.300;2022-08-03T09:36:01;94844.19;;;27.57;30.49
43217;BME280;60511;42.686;23.300;2022-08-03T09:38:08;94841.88;;;27.59;30.72
43217;BME280;60511;42.686;23.300;2022-08-03T09:40:09;94845.53;;;27.78;30.36
43217;BME280;60511;42.686;23.300;2022-08-03T09:42:10;94851.09;;;27.89;29.98
43217;BME280;60511;42.686;23.300;2022-08-03T09:44:11;94850.97;;;27.78;30.24
43217;BME280;60511;42.686;23.300;2022-08-03T09:46:12;94845.19;;;27.38;30.48
43217;BME280;60511;42.686;23.300;2022-08-03T09:48:26;94847.13;;;27.41;30.91
43217;BME280;60511;42.686;23.300;2022-08-03T09:50:26;94839.19;;;27.63;30.57
43217;BME280;60511;42.686;23.300;2022-08-03T09:52:30;94838.53;;;27.77;30.62
43217;BME280;60511;42.686;23.300;2022-08-03T09:54:31;94841.69;;;27.82;30.50
43217;BME280;60511;42.686;23.300;2022-08-03T09:58:45;94838.41;;;28.07;29.77
43217;BME280;60511;42.686;23.300;2022-08-03T10:01:04;94837.59;;;27.99;29.69
43217;BME280;60511;42.686;23.300;2022-08-03T10:03:04;94832.16;;;27.99;30.08
43217;BME280;60511;42.686;23.300;2022-08-03T10:05:05;94830.31;;;28.18;29.81
43217;BME280;60511;42.686;23.300;2022-08-03T10:07:07;94827.53;;;28.11;29.70
43217;BME280;60511;42.686;23.300;2022-08-03T10:09:09;94821.31;;;28.07;30.17
43217;BME280;60511;42.686;23.300;2022-08-03T10:11:10;94825.59;;;28.08;30.07
43217;BME280;60511;42.686;23.300;2022-08-03T10:13:11;94822.50;;;28.13;29.72
43217;BME280;60511;42.686;23.300;2022-08-03T10:15:12;94817.53;;;28.25;29.23
43217;BME280;60511;42.686;23.300;2022-08-03T10:17:12;94819.44;;;28.21;29.43
43217;BME280;60511;42.686;23.300;2022-08-03T10:19:13;94812.09;;;28.22;29.57
43217;BME280;60511;42.686;23.300;2022-08-03T10:21:16;94816.41;;;28.30;29.20
43217;BME280;60511;42.686;23.300;2022-08-03T10:23:19;94813.28;;;28.32;29.39
43217;BME280;60511;42.686;23.300;2022-08-03T10:25:20;94819.22;;;28.48;29.38
43217;BME280;60511;42.686;23.300;2022-08-03T10:27:21;94819.53;;;28.36;29.39
43217;BME280;60511;42.686;23.300;2022-08-03T10:29:23;94810.22;;;28.37;29.45
43217;BME280;60511;42.686;23.300;2022-08-03T10:31:24;94812.09;;;28.25;29.86
43217;BME280;60511;42.686;23.300;2022-08-03T10:33:26;94817.56;;;28.29;29.90
43217;BME280;60511;42.686;23.300;2022-08-03T10:35:27;94817.63;;;28.43;29.10
43217;BME280;60511;42.686;23.300;2022-08-03T10:37:29;94814.16;;;28.47;29.28
43217;BME280;60511;42.686;23.300;2022-08-03T10:39:29;94816.59;;;28.62;28.62
43217;BME280;60511;42.686;23.300;2022-08-03T10:41:31;94804.91;;;28.55;29.16
43217;BME280;60511;42.686;23.300;2022-08-03T10:44:17;94809.13;;;28.49;29.27
43217;BME280;60511;42.686;23.300;2022-08-03T10:45:52;94812.16;;;28.36;29.06
43217;BME280;60511;42.686;23.300;2022-08-03T10:47:53;94805.13;;;28.28;29.55